createdAt,value
2023-02-12T00:00:25.117Z,84.426092
2023-02-12T00:05:20.115Z,81.221399
2023-02-12T00:10:17.872Z,74.306648
2023-02-12T00:15:20.640Z,66.661457
2023-02-12T00:20:15.861Z,60.640161
2023-02-12T00:25:16.030Z,54.615608
2023-02-12T00:30:16.527Z,49.512565
2023-02-12T00:35:18.736Z,45.266358
2023-02-12T00:40:16.565Z,40.181397
2023-02-12T00:45:23.837Z,33.099995
2023-02-12T00:50:35.600Z,26.302814
2023-02-12T00:55:16.521Z,20.803634
2023-02-12T01:00:17.257Z,15.563443
2023-02-12T01:05:17.686Z,11.190456
2023-02-12T01:10:15.756Z,8.545299
2023-02-12T01:15:17.990Z,5.783663
2023-02-12T01:20:18.243Z,2.834691
2023-02-12T01:25:22.144Z,0.823617
2023-02-12T01:30:16.195Z,0.221074
2023-02-12T01:35:18.344Z,0.046632
2023-02-12T01:40:26.203Z,0.000000
2023-02-12T01:45:19.687Z,0.000000
2023-02-12T01:50:17.495Z,0.000000
2023-02-12T01:55:25.012Z,0.000000
2023-02-12T02:00:19.464Z,0.000000
2023-02-12T02:05:16.694Z,0.000000
2023-02-12T02:10:17.227Z,0.000000
2023-02-12T02:15:26.806Z,0.000000
2023-02-12T02:20:28.406Z,0.000000
2023-02-12T02:25:22.015Z,0.000000
2023-02-12T02:30:19.104Z,0.000000
2023-02-12T02:35:15.825Z,0.000000
2023-02-12T02:40:19.324Z,0.000000
2023-02-12T02:45:20.853Z,0.000000
2023-02-12T02:50:18.270Z,0.000000
2023-02-12T02:55:18.934Z,0.000000
2023-02-12T03:00:19.432Z,0.000000
2023-02-12T03:05:17.985Z,0.002244
2023-02-12T03:10:17.702Z,0.000000
2023-02-12T03:15:16.379Z,0.000000
2023-02-12T03:20:16.267Z,0.000000
2023-02-12T03:25:15.968Z,0.000000
2023-02-12T03:30:16.364Z,0.000000
2023-02-12T03:35:16.611Z,0.000000
2023-02-12T03:40:25.725Z,0.000000
2023-02-12T03:45:26.839Z,0.000000
2023-02-12T03:50:29.145Z,0.000000
2023-02-12T03:55:23.448Z,0.000000
2023-02-12T04:00:33.546Z,0.000000
2023-02-12T04:05:24.233Z,0.000000
2023-02-12T04:10:26.228Z,0.000000
2023-02-12T04:15:24.466Z,0.000000
2023-02-12T04:20:15.545Z,0.000000
2023-02-12T04:25:27.942Z,0.000000
2023-02-12T04:30:32.236Z,0.000000
2023-02-12T04:35:34.059Z,0.000000
2023-02-12T04:40:25.797Z,0.000000
2023-02-12T04:45:24.863Z,0.000000
2023-02-12T04:50:18.576Z,0.002281
2023-02-12T04:55:29.811Z,0.000000
2023-02-12T05:00:16.129Z,0.000000
2023-02-12T05:05:18.032Z,0.000000
2023-02-12T05:10:16.244Z,0.000000
2023-02-12T05:15:16.234Z,0.000000
2023-02-12T05:20:17.545Z,0.002244
2023-02-12T05:25:19.694Z,0.000000
2023-02-12T05:30:16.673Z,0.000000
2023-02-12T05:35:17.230Z,0.000000
2023-02-12T05:40:16.159Z,0.000000
2023-02-12T05:45:15.889Z,0.000000
2023-02-12T05:50:17.049Z,0.000000
2023-02-12T05:55:15.818Z,0.000000
2023-02-12T06:00:16.038Z,0.000000
2023-02-12T06:05:16.237Z,0.000000
2023-02-12T06:10:16.408Z,0.000000
2023-02-12T06:15:17.031Z,0.000000
2023-02-12T06:20:16.724Z,0.000000
2023-02-12T06:25:16.616Z,0.000000
2023-02-12T06:30:15.833Z,0.000000
2023-02-12T06:35:16.778Z,0.002255
2023-02-12T06:40:19.276Z,0.000000
2023-02-12T06:45:16.836Z,0.000000
2023-02-12T06:50:16.661Z,0.000000
2023-02-12T06:55:17.915Z,0.000000
2023-02-12T07:00:17.726Z,0.000000
2023-02-12T07:05:18.816Z,0.000000
2023-02-12T07:10:15.698Z,0.000000
2023-02-12T07:15:16.970Z,0.000000
2023-02-12T07:20:15.867Z,0.000000
2023-02-12T07:25:16.773Z,0.000000
2023-02-12T07:30:16.456Z,0.000000
2023-02-12T07:35:16.043Z,0.000000
2023-02-12T07:40:16.702Z,0.000000
2023-02-12T07:45:15.862Z,0.000000
2023-02-12T07:50:17.175Z,0.000000
2023-02-12T07:55:16.530Z,0.000000
2023-02-12T08:00:15.742Z,0.000000
2023-02-12T08:05:16.303Z,0.000000
2023-02-12T08:10:16.085Z,0.000000
2023-02-12T08:15:16.373Z,0.000000
2023-02-12T08:20:15.931Z,0.000000
2023-02-12T08:25:17.389Z,0.000000
2023-02-12T08:30:17.168Z,0.000000
2023-02-12T08:35:16.205Z,0.000000
2023-02-12T08:40:18.109Z,0.000000
2023-02-12T08:45:17.416Z,0.002209
2023-02-12T08:50:22.854Z,0.000000
2023-02-12T08:55:18.307Z,0.000000
2023-02-12T09:00:20.817Z,0.000000
2023-02-12T09:05:18.451Z,0.000000
2023-02-12T09:10:18.173Z,0.000000
2023-02-12T09:15:21.551Z,0.000000
2023-02-12T09:20:17.098Z,0.000000
2023-02-12T09:25:19.513Z,0.000000
2023-02-12T09:30:17.574Z,0.000000
2023-02-12T09:35:19.094Z,0.000000
2023-02-12T09:40:16.960Z,0.000000
2023-02-12T09:45:17.676Z,0.000000
2023-02-12T09:50:16.885Z,0.000000
2023-02-12T09:55:21.491Z,0.000000
2023-02-12T10:00:17.515Z,0.000000
2023-02-12T10:05:19.898Z,0.000000
2023-02-12T10:10:21.976Z,0.000000
2023-02-12T10:15:15.899Z,0.000000
2023-02-12T10:20:18.452Z,0.000000
2023-02-12T10:25:16.564Z,0.000000
2023-02-12T10:30:26.429Z,0.002189
2023-02-12T10:35:19.793Z,0.000000
2023-02-12T10:40:18.354Z,0.000000
2023-02-12T10:45:20.578Z,0.000000
2023-02-12T10:50:16.066Z,0.000000
2023-02-12T10:55:18.655Z,0.000000
2023-02-12T11:00:24.442Z,0.000000
2023-02-12T11:05:25.219Z,0.000000
2023-02-12T11:10:18.444Z,0.002189
2023-02-12T11:15:17.326Z,0.000000
2023-02-12T11:20:17.443Z,0.000000
2023-02-12T11:25:23.022Z,0.000000
2023-02-12T11:30:24.176Z,0.000000
2023-02-12T11:35:21.525Z,0.000000
2023-02-12T11:40:24.254Z,0.000000
2023-02-12T11:45:21.380Z,0.000000
2023-02-12T11:50:28.205Z,0.000000
2023-02-12T11:55:19.992Z,0.000000
2023-02-12T12:00:17.569Z,0.000000
2023-02-12T12:05:19.038Z,0.000000
2023-02-12T12:10:22.865Z,0.000000
2023-02-12T12:15:15.877Z,0.000000
2023-02-12T12:20:19.687Z,0.000000
2023-02-12T12:25:22.612Z,0.000000
2023-02-12T12:30:25.857Z,0.000000
2023-02-12T12:35:22.194Z,0.000000
2023-02-12T12:40:27.657Z,0.000000
2023-02-12T12:45:41.292Z,0.000000
2023-02-12T12:50:21.179Z,0.000000
2023-02-12T12:55:25.305Z,0.000000
2023-02-12T13:00:20.833Z,0.000000
2023-02-12T13:05:27.571Z,0.000000
2023-02-12T13:10:25.324Z,0.000000
2023-02-12T13:15:15.866Z,0.000000
2023-02-12T13:20:18.089Z,0.000000
2023-02-12T13:25:26.043Z,0.000000
2023-02-12T13:30:20.834Z,0.000000
2023-02-12T13:35:27.595Z,0.000000
2023-02-12T13:40:23.105Z,0.000000
2023-02-12T13:45:21.091Z,0.000000
2023-02-12T13:50:16.978Z,0.000000
2023-02-12T13:55:28.467Z,0.000000
2023-02-12T14:00:16.881Z,0.000000
2023-02-12T14:05:23.948Z,0.000000
2023-02-12T14:10:29.725Z,0.000000
2023-02-12T14:15:26.311Z,0.000000
2023-02-12T14:20:17.046Z,0.000000
2023-02-12T14:25:17.829Z,0.002209
2023-02-12T14:30:21.215Z,0.000000
2023-02-12T14:35:20.915Z,0.000000
2023-02-12T14:40:16.241Z,0.000000
2023-02-12T14:45:18.300Z,0.000000
2023-02-12T14:50:18.108Z,0.000000
2023-02-12T14:55:22.230Z,0.000000
2023-02-12T15:00:15.917Z,0.000000
2023-02-12T15:05:17.419Z,0.000000
2023-02-12T15:10:15.637Z,0.000000
2023-02-12T15:15:16.450Z,0.002224
2023-02-12T15:20:16.813Z,0.002219
2023-02-12T15:25:16.008Z,0.051011
2023-02-12T15:30:25.601Z,0.301148
2023-02-12T15:35:16.314Z,1.000523
2023-02-12T15:40:16.134Z,2.487409
2023-02-12T15:45:17.074Z,5.017629
2023-02-12T15:50:16.583Z,7.775982
2023-02-12T15:55:16.932Z,10.000171
2023-02-12T16:00:16.410Z,11.465054
2023-02-12T16:05:15.738Z,13.941315
2023-02-12T16:10:16.334Z,19.088082
2023-02-12T16:15:17.595Z,22.697697
2023-02-12T16:20:16.028Z,26.893398
2023-02-12T16:25:18.213Z,32.297560
2023-02-12T16:30:15.865Z,39.145126
2023-02-12T16:35:17.342Z,44.827590
2023-02-12T16:40:15.646Z,55.263675
2023-02-12T16:45:15.991Z,60.817110
2023-02-12T16:50:16.764Z,64.724877
2023-02-12T16:55:16.745Z,68.313826
2023-02-12T17:00:16.115Z,71.296320
2023-02-12T17:05:15.570Z,91.974892
2023-02-12T17:10:16.570Z,91.969637
2023-02-12T17:15:16.676Z,102.427004
2023-02-12T17:20:15.403Z,127.480961
2023-02-12T17:25:15.735Z,115.758522
2023-02-12T17:30:16.637Z,108.115321
2023-02-12T17:35:16.666Z,142.060254
2023-02-12T17:40:16.211Z,224.041336
2023-02-12T17:45:17.747Z,183.598929
2023-02-12T17:50:16.490Z,202.934205
2023-02-12T17:55:16.856Z,266.542065
2023-02-12T18:00:17.104Z,278.545837
2023-02-12T18:05:16.137Z,276.394424
2023-02-12T18:10:17.133Z,260.812805
2023-02-12T18:15:15.947Z,263.002234
2023-02-12T18:20:16.306Z,280.483648
2023-02-12T18:25:17.411Z,288.976841
2023-02-12T18:30:16.255Z,305.645852
2023-02-12T18:35:16.097Z,330.447233
2023-02-12T18:40:16.177Z,345.270024
2023-02-12T18:45:16.572Z,327.847023
2023-02-12T18:50:16.221Z,208.192477
2023-02-12T18:55:20.729Z,296.513688
2023-02-12T19:00:16.273Z,304.530699
2023-02-12T19:05:16.365Z,309.654333
2023-02-12T19:10:16.523Z,334.373047
2023-02-12T19:15:18.219Z,342.962215
2023-02-12T19:20:20.947Z,347.070102
2023-02-12T19:25:16.311Z,351.509283
2023-02-12T19:30:16.718Z,353.085452
2023-02-12T19:35:16.873Z,373.055175
2023-02-12T19:40:16.497Z,380.552647
2023-02-12T19:45:16.496Z,380.427518
2023-02-12T19:50:15.928Z,398.524377
2023-02-12T19:55:16.213Z,239.764505
2023-02-12T20:00:16.135Z,227.181089
2023-02-12T20:05:16.471Z,174.541680
2023-02-12T20:10:18.234Z,353.377835
2023-02-12T20:15:16.929Z,506.152025
2023-02-12T20:20:16.166Z,263.983130
2023-02-12T20:25:17.010Z,226.970426
2023-02-12T20:30:17.009Z,350.264965
2023-02-12T20:35:16.410Z,309.157984
2023-02-12T20:40:16.181Z,252.143945
2023-02-12T20:45:15.927Z,226.561878
2023-02-12T20:50:15.949Z,409.562430
2023-02-12T20:55:15.722Z,338.378639
2023-02-12T21:00:16.377Z,174.259833
2023-02-12T21:05:15.790Z,193.083419
2023-02-12T21:10:16.015Z,339.444947
2023-02-12T21:15:16.045Z,425.530765
2023-02-12T21:20:17.060Z,343.593141
2023-02-12T21:25:15.873Z,357.150745
2023-02-12T21:30:15.771Z,492.888866
2023-02-12T21:35:16.937Z,427.761667
2023-02-12T21:40:17.494Z,392.634608
2023-02-12T21:45:16.646Z,262.015349
2023-02-12T21:50:17.027Z,171.510749
2023-02-12T21:55:17.414Z,185.665794
2023-02-12T22:00:15.932Z,191.914081
2023-02-12T22:05:16.541Z,219.372001
2023-02-12T22:10:15.958Z,281.666461
2023-02-12T22:15:16.498Z,212.248037
2023-02-12T22:20:16.082Z,178.214935
2023-02-12T22:25:17.188Z,158.441850
2023-02-12T22:30:16.159Z,177.564110
2023-02-12T22:35:15.943Z,185.704199
2023-02-12T22:40:17.685Z,131.210610
2023-02-12T22:45:18.416Z,121.170118
2023-02-12T22:50:16.922Z,116.811230
2023-02-12T22:55:15.892Z,113.199865
2023-02-12T23:00:17.034Z,106.091975
2023-02-12T23:05:17.080Z,103.148392
2023-02-12T23:10:16.089Z,103.846447
2023-02-12T23:15:15.772Z,99.905527
2023-02-12T23:20:16.612Z,95.330628
2023-02-12T23:25:15.750Z,102.390768
2023-02-12T23:30:16.402Z,101.169892
2023-02-12T23:35:16.553Z,88.992983
2023-02-12T23:40:15.647Z,79.507344
2023-02-12T23:45:16.187Z,75.545438
2023-02-12T23:50:16.054Z,69.766119
2023-02-12T23:55:16.092Z,62.170825
